createdAt,value
2016-07-04T00:00:41.603Z,968.63
2016-07-04T00:01:41.611Z,968.6
2016-07-04T00:02:41.626Z,968.57
2016-07-04T00:03:41.631Z,968.59
2016-07-04T00:04:41.643Z,968.58
2016-07-04T00:05:41.656Z,968.56
2016-07-04T00:06:41.659Z,968.58
2016-07-04T00:07:41.668Z,968.57
2016-07-04T00:08:41.679Z,968.55
2016-07-04T00:09:41.688Z,968.52
2016-07-04T00:10:41.692Z,968.55
2016-07-04T00:11:41.716Z,968.53
2016-07-04T00:12:41.713Z,968.5
2016-07-04T00:13:41.722Z,968.51
2016-07-04T00:14:41.730Z,968.48
2016-07-04T00:15:41.746Z,968.46
2016-07-04T00:16:41.750Z,968.47
2016-07-04T00:17:41.757Z,968.48
2016-07-04T00:18:41.767Z,968.51
2016-07-04T00:19:41.781Z,968.5
2016-07-04T00:20:41.780Z,968.51
2016-07-04T00:21:41.800Z,968.54
2016-07-04T00:22:41.799Z,968.55
2016-07-04T00:23:41.809Z,968.49
2016-07-04T00:24:41.816Z,968.49
2016-07-04T00:25:41.833Z,968.5
2016-07-04T00:26:41.845Z,968.47
2016-07-04T00:27:41.844Z,968.47
2016-07-04T00:28:41.850Z,968.49
2016-07-04T00:29:41.871Z,968.46
2016-07-04T00:30:41.869Z,968.44
2016-07-04T00:31:41.890Z,968.46
2016-07-04T00:32:41.895Z,968.42
2016-07-04T00:33:41.900Z,968.44
2016-07-04T00:34:41.907Z,968.43
2016-07-04T00:35:41.921Z,968.48
2016-07-04T00:36:41.940Z,968.45
2016-07-04T00:37:41.934Z,968.46
2016-07-04T00:38:41.945Z,968.5
2016-07-04T00:39:41.957Z,968.47
2016-07-04T00:40:41.961Z,968.47
2016-07-04T00:41:41.967Z,968.43
2016-07-04T00:42:41.982Z,968.42
2016-07-04T00:43:41.996Z,968.46
2016-07-04T00:44:41.996Z,968.43
2016-07-04T00:45:42.004Z,968.41
2016-07-04T00:46:42.012Z,968.45
2016-07-04T00:47:42.022Z,968.47
2016-07-04T00:48:42.029Z,968.43
2016-07-04T00:49:42.047Z,968.47
2016-07-04T00:50:42.056Z,968.45
2016-07-04T00:51:42.071Z,968.45
2016-07-04T00:52:42.063Z,968.48
2016-07-04T00:53:42.074Z,968.46
2016-07-04T00:54:42.085Z,968.48
2016-07-04T00:55:42.093Z,968.45
2016-07-04T00:56:42.109Z,968.43
2016-07-04T00:57:42.118Z,968.49
2016-07-04T00:58:42.119Z,968.46
2016-07-04T00:59:42.128Z,968.44
2016-07-04T01:00:42.137Z,968.49
2016-07-04T01:01:42.154Z,968.45
2016-07-04T01:02:42.156Z,968.44
2016-07-04T01:03:42.158Z,968.46
2016-07-04T01:04:42.171Z,968.46
2016-07-04T01:05:42.242Z,968.45
2016-07-04T01:06:42.189Z,968.5
2016-07-04T01:07:42.265Z,968.53
2016-07-04T01:08:42.213Z,968.53
2016-07-04T01:09:42.283Z,968.5
2016-07-04T01:10:42.233Z,968.53
2016-07-04T01:11:42.258Z,968.5
2016-07-04T01:12:42.250Z,968.46
2016-07-04T01:13:42.252Z,968.43
2016-07-04T01:14:42.268Z,968.39
2016-07-04T01:15:42.279Z,968.39
2016-07-04T01:16:42.285Z,968.39
2016-07-04T01:17:42.289Z,968.36
2016-07-04T01:18:42.299Z,968.38
2016-07-04T01:19:42.304Z,968.36
2016-07-04T01:20:42.322Z,968.36
2016-07-04T01:21:42.324Z,968.32
2016-07-04T01:22:42.353Z,968.32
2016-07-04T01:23:42.346Z,968.34
2016-07-04T01:24:42.348Z,968.31
2016-07-04T01:25:42.356Z,968.3
2016-07-04T01:26:42.363Z,968.29
2016-07-04T01:27:42.384Z,968.3
2016-07-04T01:28:42.393Z,968.29
2016-07-04T01:29:42.397Z,968.26
2016-07-04T01:30:42.402Z,968.25
2016-07-04T01:31:42.408Z,968.27
2016-07-04T01:32:42.424Z,968.25
2016-07-04T01:33:42.435Z,968.23
2016-07-04T01:34:42.436Z,968.23
2016-07-04T01:35:42.450Z,968.21
2016-07-04T01:36:42.462Z,968.27
2016-07-04T01:37:42.470Z,968.27
2016-07-04T01:38:42.472Z,968.24
2016-07-04T01:39:42.489Z,968.22
2016-07-04T01:40:42.485Z,968.28
2016-07-04T01:41:42.504Z,968.27
2016-07-04T01:42:42.508Z,968.26
2016-07-04T01:43:42.520Z,968.24
2016-07-04T01:44:42.528Z,968.25
2016-07-04T01:45:42.533Z,968.25
2016-07-04T01:46:42.549Z,968.24
2016-07-04T01:47:42.546Z,968.24
2016-07-04T01:48:42.558Z,968.23
2016-07-04T01:49:42.570Z,968.22
2016-07-04T01:50:42.576Z,968.24
2016-07-04T01:51:42.591Z,968.2
2016-07-04T01:52:42.601Z,968.2
2016-07-04T01:53:42.608Z,968.2
2016-07-04T01:54:42.619Z,968.18
2016-07-04T01:55:42.618Z,968.2
2016-07-04T01:56:42.634Z,968.18
2016-07-04T01:57:42.640Z,968.22
2016-07-04T01:58:42.645Z,968.19
2016-07-04T01:59:42.661Z,968.16
2016-07-04T02:00:42.672Z,968.16
2016-07-04T02:01:42.670Z,968.14
2016-07-04T02:02:42.685Z,968.12
2016-07-04T02:03:42.690Z,968.16
2016-07-04T02:04:42.699Z,968.13
2016-07-04T02:05:42.711Z,968.1
2016-07-04T02:06:42.722Z,968.14
2016-07-04T02:07:42.732Z,968.09
2016-07-04T02:08:42.736Z,968.09
2016-07-04T02:09:42.805Z,968.06
2016-07-04T02:10:42.810Z,968.07
2016-07-04T02:11:42.814Z,968.11
2016-07-04T02:12:42.775Z,968.08
2016-07-04T02:13:42.782Z,968.1
2016-07-04T02:14:42.784Z,968.04
2016-07-04T02:15:42.798Z,968.04
2016-07-04T02:16:42.808Z,968.03
2016-07-04T02:17:42.816Z,968.01
2016-07-04T02:18:42.820Z,968.04
2016-07-04T02:19:42.828Z,968.04
2016-07-04T02:20:42.837Z,968.03
2016-07-04T02:21:42.854Z,968.06
2016-07-04T02:22:42.865Z,968.05
2016-07-04T02:23:42.867Z,968.03
2016-07-04T02:24:42.879Z,968.04
2016-07-04T02:25:42.888Z,968.08
2016-07-04T02:26:42.891Z,968.07
2016-07-04T02:27:42.904Z,968.08
2016-07-04T02:28:42.907Z,968.06
2016-07-04T02:29:42.922Z,968.06
2016-07-04T02:30:42.931Z,968.04
2016-07-04T02:31:42.938Z,968.08
2016-07-04T02:32:42.943Z,968.14
2016-07-04T02:33:42.953Z,968.14
2016-07-04T02:34:42.961Z,968.13
2016-07-04T02:35:42.976Z,968.12
2016-07-04T02:36:42.976Z,968.13
2016-07-04T02:37:42.986Z,968.19
2016-07-04T02:38:42.995Z,968.17
2016-07-04T02:39:43.009Z,968.16
2016-07-04T02:40:43.016Z,968.14
2016-07-04T02:41:43.025Z,968.1
2016-07-04T02:42:43.035Z,968.12
2016-07-04T02:43:43.032Z,968.13
2016-07-04T02:44:43.046Z,968.16
2016-07-04T02:45:43.058Z,968.13
2016-07-04T02:46:43.069Z,968.15
2016-07-04T02:47:43.074Z,968.14
2016-07-04T02:48:43.089Z,968.11
2016-07-04T02:49:43.091Z,968.09
2016-07-04T02:50:43.097Z,968.1
2016-07-04T02:51:43.113Z,968.11
2016-07-04T02:52:43.115Z,968.09
2016-07-04T02:53:43.132Z,968.09
2016-07-04T02:54:43.141Z,968.12
2016-07-04T02:55:43.152Z,968.1
2016-07-04T02:56:43.158Z,968.1
2016-07-04T02:57:43.159Z,968.08
2016-07-04T02:58:43.166Z,968.12
2016-07-04T02:59:43.184Z,968.11
2016-07-04T03:00:43.188Z,968.14
2016-07-04T03:01:43.194Z,968.13
2016-07-04T03:02:43.208Z,968.16
2016-07-04T03:03:43.221Z,968.15
2016-07-04T03:04:43.227Z,968.17
2016-07-04T03:05:43.230Z,968.13
2016-07-04T03:06:43.243Z,968.11
2016-07-04T03:07:43.252Z,968.18
2016-07-04T03:08:43.257Z,968.15
2016-07-04T03:09:43.269Z,968.15
2016-07-04T03:10:43.270Z,968.13
2016-07-04T03:11:43.276Z,968.13
2016-07-04T03:12:43.294Z,968.07
2016-07-04T03:13:43.302Z,968.09
2016-07-04T03:14:43.309Z,968.12
2016-07-04T03:15:43.315Z,968.08
2016-07-04T03:16:43.325Z,968.09
2016-07-04T03:17:43.329Z,968.09
2016-07-04T03:18:43.338Z,968.1
2016-07-04T03:19:43.351Z,968.16
2016-07-04T03:20:43.360Z,968.1
2016-07-04T03:21:43.362Z,968.12
2016-07-04T03:22:43.369Z,968.11
2016-07-04T03:23:43.386Z,968.11
2016-07-04T03:24:43.395Z,968.05
2016-07-04T03:25:43.406Z,968.11
2016-07-04T03:26:43.408Z,968.08
2016-07-04T03:27:43.419Z,968.09
2016-07-04T03:28:43.429Z,968.04
2016-07-04T03:29:43.440Z,968.01
2016-07-04T03:30:43.438Z,968.03
2016-07-04T03:31:43.449Z,968.01
2016-07-04T03:32:43.461Z,968
2016-07-04T03:33:43.474Z,968.03
2016-07-04T03:34:43.478Z,968.05
2016-07-04T03:35:43.488Z,968.02
2016-07-04T03:36:43.491Z,968.02
2016-07-04T03:37:43.500Z,968.04
2016-07-04T03:38:43.514Z,968.02
2016-07-04T03:39:43.523Z,968.04
2016-07-04T03:40:43.533Z,968.06
2016-07-04T03:41:43.539Z,968.06
2016-07-04T03:42:43.550Z,968.09
2016-07-04T03:43:43.552Z,968.06
2016-07-04T03:44:43.565Z,968.1
2016-07-04T03:45:43.569Z,968.08
2016-07-04T03:46:43.573Z,968.07
2016-07-04T03:47:43.590Z,968.04
2016-07-04T03:48:43.606Z,968.03
2016-07-04T03:49:43.614Z,968.01
2016-07-04T03:50:43.610Z,967.97
2016-07-04T03:51:43.628Z,967.95
2016-07-04T03:52:43.635Z,967.97
2016-07-04T03:53:43.643Z,967.92
2016-07-04T03:54:43.644Z,967.93
2016-07-04T03:55:43.656Z,967.94
2016-07-04T03:56:43.663Z,967.92
2016-07-04T03:57:43.680Z,967.95
2016-07-04T03:58:43.682Z,967.93
2016-07-04T03:59:43.690Z,967.9
2016-07-04T04:00:43.706Z,967.94
2016-07-04T04:01:43.707Z,967.93
2016-07-04T04:02:43.714Z,967.93
2016-07-04T04:03:43.724Z,967.93
2016-07-04T04:04:43.734Z,967.94
2016-07-04T04:05:43.748Z,967.91
2016-07-04T04:06:43.755Z,967.89
2016-07-04T04:07:43.761Z,967.95
2016-07-04T04:08:43.764Z,967.93
2016-07-04T04:09:43.772Z,967.93
2016-07-04T04:10:43.974Z,967.93
2016-07-04T04:11:43.792Z,968.01
2016-07-04T04:12:43.810Z,967.98
2016-07-04T04:13:43.817Z,967.97
2016-07-04T04:14:43.824Z,967.94
2016-07-04T04:15:43.829Z,967.95
2016-07-04T04:16:43.843Z,967.96
2016-07-04T04:17:43.852Z,967.98
2016-07-04T04:18:43.863Z,967.93
2016-07-04T04:19:43.877Z,967.93
2016-07-04T04:20:43.879Z,967.9
2016-07-04T04:21:43.891Z,967.91
2016-07-04T04:22:43.900Z,967.93
2016-07-04T04:23:43.903Z,967.93
2016-07-04T04:24:43.910Z,967.91
2016-07-04T04:25:43.919Z,967.93
2016-07-04T04:26:43.928Z,967.89
2016-07-04T04:27:43.938Z,967.86
2016-07-04T04:28:43.947Z,967.91
2016-07-04T04:29:43.955Z,967.84
2016-07-04T04:30:43.969Z,967.8
2016-07-04T04:31:43.978Z,967.85
2016-07-04T04:32:43.993Z,967.83
2016-07-04T04:33:43.998Z,967.84
2016-07-04T04:34:44.009Z,967.84
2016-07-04T04:35:44.006Z,967.88
2016-07-04T04:36:44.019Z,967.89
2016-07-04T04:37:44.031Z,967.86
2016-07-04T04:38:44.038Z,967.86
2016-07-04T04:39:44.052Z,967.9
2016-07-04T04:40:44.055Z,967.9
2016-07-04T04:41:44.063Z,967.91
2016-07-04T04:42:44.077Z,967.9
2016-07-04T04:43:44.084Z,967.9
2016-07-04T04:44:44.086Z,967.91
2016-07-04T04:45:44.096Z,967.89
2016-07-04T04:46:44.104Z,967.84
2016-07-04T04:47:44.121Z,967.88
2016-07-04T04:48:44.131Z,967.9
2016-07-04T04:49:44.130Z,967.86
2016-07-04T04:50:44.147Z,967.94
2016-07-04T04:51:44.155Z,967.93
2016-07-04T04:52:44.164Z,967.92
2016-07-04T04:53:44.166Z,967.93
2016-07-04T04:54:44.174Z,967.91
2016-07-04T04:55:44.190Z,967.93
2016-07-04T04:56:44.199Z,967.92
2016-07-04T04:57:44.200Z,967.96
2016-07-04T04:58:44.213Z,967.91
2016-07-04T04:59:44.228Z,967.96
2016-07-04T05:00:44.228Z,967.97
2016-07-04T05:01:44.236Z,967.95
2016-07-04T05:02:44.240Z,967.97
2016-07-04T05:03:44.253Z,967.96
2016-07-04T05:04:44.259Z,967.97
2016-07-04T05:05:44.270Z,967.91
2016-07-04T05:06:44.279Z,967.94
2016-07-04T05:07:44.294Z,967.92
2016-07-04T05:08:44.293Z,967.95
2016-07-04T05:09:44.304Z,967.93
2016-07-04T05:10:44.313Z,967.95
2016-07-04T05:11:44.346Z,967.95
2016-07-04T05:12:44.336Z,968
2016-07-04T05:13:44.363Z,967.98
2016-07-04T05:14:44.352Z,967.95
2016-07-04T05:15:44.353Z,967.97
2016-07-04T05:16:44.371Z,967.94
2016-07-04T05:17:44.381Z,967.96
2016-07-04T05:18:44.383Z,968
2016-07-04T05:19:44.396Z,968
2016-07-04T05:20:44.399Z,968
2016-07-04T05:21:44.407Z,968.07
2016-07-04T05:22:44.422Z,968.04
2016-07-04T05:23:44.439Z,968.07
2016-07-04T05:24:44.440Z,968.08
2016-07-04T05:25:44.449Z,968.06
2016-07-04T05:26:44.446Z,968.09
2016-07-04T05:27:44.470Z,968.1
2016-07-04T05:28:44.473Z,968.08
2016-07-04T05:29:44.476Z,968.1
2016-07-04T05:30:44.479Z,968.05
2016-07-04T05:31:44.498Z,968.08
2016-07-04T05:32:44.502Z,968.05
2016-07-04T05:33:44.516Z,968.1
2016-07-04T05:34:44.514Z,968.08
2016-07-04T05:35:44.528Z,968.07
2016-07-04T05:36:44.542Z,968.05
2016-07-04T05:37:44.544Z,968.02
2016-07-04T05:38:44.563Z,968
2016-07-04T05:39:44.566Z,967.99
2016-07-04T05:40:44.567Z,967.98
2016-07-04T05:41:44.577Z,967.99
2016-07-04T05:42:44.580Z,967.98
2016-07-04T05:43:44.600Z,967.96
2016-07-04T05:44:44.602Z,967.98
2016-07-04T05:45:44.611Z,967.97
2016-07-04T05:46:44.624Z,968.01
2016-07-04T05:47:44.626Z,968.01
2016-07-04T05:48:44.642Z,968.01
2016-07-04T05:49:44.650Z,967.99
2016-07-04T05:50:44.652Z,967.98
2016-07-04T05:51:44.666Z,968.01
2016-07-04T05:52:44.675Z,968
2016-07-04T05:53:44.683Z,968
2016-07-04T05:54:44.688Z,968.02
2016-07-04T05:55:44.695Z,968.02
2016-07-04T05:56:44.712Z,967.99
2016-07-04T05:57:44.718Z,967.98
2016-07-04T05:58:44.726Z,967.95
2016-07-04T05:59:44.747Z,967.92
2016-07-04T06:00:44.744Z,967.92
2016-07-04T06:01:44.753Z,967.92
2016-07-04T06:02:44.769Z,967.85
2016-07-04T06:03:44.772Z,967.87
2016-07-04T06:04:44.789Z,967.85
2016-07-04T06:05:44.792Z,967.84
2016-07-04T06:06:44.800Z,967.85
2016-07-04T06:07:44.814Z,967.86
2016-07-04T06:08:44.815Z,967.83
2016-07-04T06:09:44.830Z,967.84
2016-07-04T06:10:44.840Z,967.85
2016-07-04T06:11:44.841Z,967.87
2016-07-04T06:12:44.850Z,967.84
2016-07-04T06:13:44.871Z,967.83
2016-07-04T06:14:44.868Z,967.82
2016-07-04T06:15:44.878Z,967.8
2016-07-04T06:16:44.886Z,967.82
2016-07-04T06:17:44.898Z,967.8
2016-07-04T06:18:44.901Z,967.85
2016-07-04T06:19:44.942Z,967.85
2016-07-04T06:20:44.928Z,967.87
2016-07-04T06:21:44.938Z,967.92
2016-07-04T06:22:44.937Z,967.92
2016-07-04T06:23:44.962Z,967.93
2016-07-04T06:24:44.958Z,967.97
2016-07-04T06:25:44.967Z,967.94
2016-07-04T06:26:44.975Z,967.94
2016-07-04T06:27:44.983Z,967.92
2016-07-04T06:28:44.997Z,967.92
2016-07-04T06:29:45.001Z,967.92
2016-07-04T06:30:45.015Z,967.92
2016-07-04T06:31:45.024Z,967.92
2016-07-04T06:32:45.029Z,967.9
2016-07-04T06:33:45.034Z,967.91
2016-07-04T06:34:45.044Z,967.95
2016-07-04T06:35:45.052Z,967.94
2016-07-04T06:36:45.057Z,967.92
2016-07-04T06:37:45.073Z,967.91
2016-07-04T06:38:45.074Z,967.93
2016-07-04T06:39:45.082Z,967.89
2016-07-04T06:40:45.094Z,967.89
2016-07-04T06:41:45.100Z,967.89
2016-07-04T06:42:45.109Z,967.91
2016-07-04T06:43:45.116Z,967.9
2016-07-04T06:44:45.139Z,967.87
2016-07-04T06:45:45.137Z,967.87
2016-07-04T06:46:45.149Z,967.91
2016-07-04T06:47:45.155Z,967.9
2016-07-04T06:48:45.157Z,967.86
2016-07-04T06:49:45.168Z,967.82
2016-07-04T06:50:45.171Z,967.83
2016-07-04T06:51:45.182Z,967.82
2016-07-04T06:52:45.197Z,967.81
2016-07-04T06:53:45.206Z,967.82
2016-07-04T06:54:45.207Z,967.84
2016-07-04T06:55:45.233Z,967.84
2016-07-04T06:56:45.233Z,967.89
2016-07-04T06:57:45.233Z,967.86
2016-07-04T06:58:45.241Z,967.86
2016-07-04T06:59:45.257Z,967.91
2016-07-04T07:00:45.268Z,967.88
2016-07-04T07:01:45.269Z,967.88
2016-07-04T07:02:45.381Z,967.88
2016-07-04T07:03:45.287Z,967.91
2016-07-04T07:04:45.293Z,967.86
2016-07-04T07:05:45.306Z,967.88
2016-07-04T07:06:45.307Z,967.89
2016-07-04T07:07:45.328Z,967.89
2016-07-04T07:08:45.335Z,967.91
2016-07-04T07:09:45.342Z,967.9
2016-07-04T07:10:45.348Z,967.93
2016-07-04T07:11:45.354Z,967.92
2016-07-04T07:12:45.366Z,967.94
2016-07-04T07:13:45.367Z,967.89
2016-07-04T07:14:45.372Z,967.94
2016-07-04T07:15:45.390Z,967.93
2016-07-04T07:16:45.398Z,967.93
2016-07-04T07:17:45.399Z,967.91
2016-07-04T07:18:45.413Z,967.92
2016-07-04T07:19:45.416Z,967.93
2016-07-04T07:20:45.431Z,967.93
2016-07-04T07:21:45.445Z,967.94
2016-07-04T07:22:45.447Z,967.91
2016-07-04T07:23:45.447Z,967.92
2016-07-04T07:24:45.456Z,967.88
2016-07-04T07:25:45.472Z,967.9
2016-07-04T07:26:45.632Z,967.92
2016-07-04T07:27:45.490Z,967.88
2016-07-04T07:28:45.497Z,967.88
2016-07-04T07:29:45.505Z,967.87
2016-07-04T07:30:45.526Z,967.85
2016-07-04T07:31:45.522Z,967.87
2016-07-04T07:32:45.524Z,967.87
2016-07-04T07:33:45.551Z,967.88
2016-07-04T07:34:45.541Z,967.82
2016-07-04T07:35:45.564Z,967.83
2016-07-04T07:36:45.569Z,967.83
2016-07-04T07:37:45.610Z,967.87
2016-07-04T07:38:45.585Z,967.82
2016-07-04T07:39:45.584Z,967.81
2016-07-04T07:40:45.599Z,967.79
2016-07-04T07:41:45.605Z,967.79
2016-07-04T07:42:45.617Z,967.79
2016-07-04T07:43:45.616Z,967.8
2016-07-04T07:44:45.630Z,967.78
2016-07-04T07:45:45.638Z,967.8
2016-07-04T07:46:45.645Z,967.78
2016-07-04T07:47:45.647Z,967.81
2016-07-04T07:48:45.663Z,967.84
2016-07-04T07:49:45.664Z,967.82
2016-07-04T07:50:45.678Z,967.82
2016-07-04T07:51:45.688Z,967.84
2016-07-04T07:52:45.690Z,967.84
2016-07-04T07:53:45.703Z,967.82
2016-07-04T07:54:45.706Z,967.84
2016-07-04T07:55:45.715Z,967.8
2016-07-04T07:56:45.723Z,967.81
2016-07-04T07:57:45.848Z,967.8
2016-07-04T07:58:45.739Z,967.81
2016-07-04T07:59:45.753Z,967.81
2016-07-04T08:00:45.758Z,967.8
2016-07-04T08:01:45.770Z,967.78
2016-07-04T08:02:45.900Z,967.84
2016-07-04T08:03:45.911Z,967.84
2016-07-04T08:04:45.842Z,967.82
2016-07-04T08:05:45.795Z,967.82
2016-07-04T08:06:45.805Z,967.87
2016-07-04T08:07:45.813Z,967.86
2016-07-04T08:08:45.915Z,967.83
2016-07-04T08:09:45.837Z,967.91
2016-07-04T08:10:45.840Z,967.87
2016-07-04T08:11:45.845Z,967.88
2016-07-04T08:12:45.853Z,967.89
2016-07-04T08:13:45.864Z,967.95
2016-07-04T08:14:45.877Z,967.92
2016-07-04T08:15:45.878Z,967.99
2016-07-04T08:16:46.141Z,967.96
2016-07-04T08:17:46.127Z,967.95
2016-07-04T08:18:45.902Z,967.92
2016-07-04T08:19:45.913Z,967.94
2016-07-04T08:20:45.925Z,967.9
2016-07-04T08:21:45.929Z,967.9
2016-07-04T08:22:45.984Z,967.85
2016-07-04T08:23:45.951Z,967.91
2016-07-04T08:24:45.951Z,967.83
2016-07-04T08:25:45.969Z,967.89
2016-07-04T08:26:45.968Z,967.89
2016-07-04T08:27:45.982Z,967.9
2016-07-04T08:28:45.987Z,967.89
2016-07-04T08:29:45.990Z,967.91
2016-07-04T08:30:46.006Z,967.89
2016-07-04T08:31:46.021Z,967.9
2016-07-04T08:32:46.027Z,967.85
2016-07-04T08:33:46.025Z,967.88
2016-07-04T08:34:46.038Z,967.85
2016-07-04T08:35:46.047Z,967.86
2016-07-04T08:36:46.060Z,967.86
2016-07-04T08:37:46.069Z,967.88
2016-07-04T08:38:46.073Z,967.87
2016-07-04T08:39:46.084Z,967.86
2016-07-04T08:40:46.093Z,967.85
2016-07-04T08:41:46.090Z,967.88
2016-07-04T08:42:46.100Z,967.84
2016-07-04T08:43:46.113Z,967.85
2016-07-04T08:44:46.886Z,967.83
2016-07-04T08:46:46.136Z,967.78
2016-07-04T08:47:46.148Z,967.82
2016-07-04T08:48:46.149Z,967.81
2016-07-04T08:49:46.161Z,967.76
2016-07-04T08:50:46.713Z,967.77
2016-07-04T08:51:46.180Z,967.74
2016-07-04T08:53:46.191Z,967.73
2016-07-04T08:54:57.953Z,967.75
2016-07-04T08:55:46.213Z,967.76
2016-07-04T08:57:10.492Z,967.75
2016-07-04T08:57:46.225Z,967.72
2016-07-04T08:58:46.230Z,967.73
2016-07-04T08:59:46.394Z,967.73
2016-07-04T09:25:57.793Z,967.72
2016-07-04T09:26:57.850Z,967.71
2016-07-04T09:27:57.802Z,967.71
2016-07-04T09:28:57.811Z,967.71
2016-07-04T09:29:57.826Z,967.67
2016-07-04T09:30:57.835Z,967.7
2016-07-04T09:31:57.836Z,967.71
2016-07-04T09:32:57.844Z,967.7
2016-07-04T09:33:57.858Z,967.67
2016-07-04T09:34:57.859Z,967.69
2016-07-04T09:35:57.871Z,967.67
2016-07-04T09:36:57.890Z,967.66
2016-07-04T09:37:57.894Z,967.68
2016-07-04T09:38:57.905Z,967.68
2016-07-04T09:39:57.915Z,967.67
2016-07-04T09:40:57.924Z,967.65
2016-07-04T09:41:57.924Z,967.63
2016-07-04T09:42:57.929Z,967.61
2016-07-04T09:43:57.939Z,967.63
2016-07-04T09:44:57.955Z,967.63
2016-07-04T09:45:57.964Z,967.59
2016-07-04T09:46:57.964Z,967.62
2016-07-04T09:47:57.977Z,967.59
2016-07-04T09:48:57.990Z,967.59
2016-07-04T09:49:57.997Z,967.6
2016-07-04T09:50:58.011Z,967.55
2016-07-04T09:51:58.011Z,967.55
2016-07-04T09:52:58.025Z,967.51
2016-07-04T09:53:58.047Z,967.57
2016-07-04T09:54:58.047Z,967.57
2016-07-04T09:55:58.047Z,967.57
2016-07-04T09:56:58.055Z,967.64
2016-07-04T09:57:58.072Z,967.61
2016-07-04T09:58:58.080Z,967.59
2016-07-04T09:59:58.088Z,967.64
2016-07-04T10:00:58.099Z,967.65
2016-07-04T10:01:58.101Z,967.59
2016-07-04T10:02:58.109Z,967.59
2016-07-04T10:03:58.122Z,967.59
2016-07-04T10:04:58.125Z,967.58
2016-07-04T10:05:58.145Z,967.63
2016-07-04T10:06:58.151Z,967.57
2016-07-04T10:07:58.153Z,967.55
2016-07-04T10:08:58.170Z,967.56
2016-07-04T10:09:58.176Z,967.54
2016-07-04T10:10:58.189Z,967.58
2016-07-04T10:11:58.189Z,967.5
2016-07-04T10:12:58.204Z,967.49
2016-07-04T10:13:58.207Z,967.49
2016-07-04T10:14:58.227Z,967.5
2016-07-04T10:15:58.234Z,967.52
2016-07-04T10:16:58.233Z,967.53
2016-07-04T10:17:58.239Z,967.5
2016-07-04T10:18:58.250Z,967.54
2016-07-04T10:19:58.269Z,967.5
2016-07-04T10:20:58.272Z,967.5
2016-07-04T10:21:58.282Z,967.62
2016-07-04T10:22:58.284Z,967.47
2016-07-04T10:23:58.296Z,967.45
2016-07-04T10:24:58.310Z,967.46
2016-07-04T10:25:58.317Z,967.45
2016-07-04T10:26:58.327Z,967.37
2016-07-04T10:27:58.333Z,967.42
2016-07-04T10:28:58.339Z,967.38
2016-07-04T10:29:58.351Z,967.38
2016-07-04T10:30:58.354Z,967.36
2016-07-04T10:31:58.365Z,967.38
2016-07-04T10:32:58.375Z,967.37
2016-07-04T10:33:58.381Z,967.35
2016-07-04T10:34:58.388Z,967.37
2016-07-04T10:35:58.404Z,967.37
2016-07-04T10:36:58.410Z,967.34
2016-07-04T10:37:58.427Z,967.35
2016-07-04T10:38:58.437Z,967.29
2016-07-04T10:39:58.445Z,967.33
2016-07-04T10:40:58.450Z,967.37
2016-07-04T10:41:58.472Z,967.36
2016-07-04T10:42:58.473Z,967.33
2016-07-04T10:43:58.483Z,967.34
2016-07-04T10:44:58.497Z,967.31
2016-07-04T10:45:58.496Z,967.3
2016-07-04T10:46:58.506Z,967.34
2016-07-04T10:47:58.518Z,967.34
2016-07-04T10:48:58.532Z,967.35
2016-07-04T10:49:58.534Z,967.37
2016-07-04T10:50:58.549Z,967.35
2016-07-04T10:51:58.558Z,967.33
2016-07-04T10:52:58.564Z,967.28
2016-07-04T10:53:58.582Z,967.29
2016-07-04T10:54:58.586Z,967.31
2016-07-04T10:55:58.591Z,967.29
2016-07-04T10:56:58.609Z,967.23
2016-07-04T10:57:58.609Z,967.22
2016-07-04T10:58:58.630Z,967.25
2016-07-04T10:59:58.635Z,967.21
2016-07-04T11:00:58.636Z,967.16
2016-07-04T11:01:58.647Z,967.16
2016-07-04T11:02:58.660Z,967.2
2016-07-04T11:03:58.670Z,967.21
2016-07-04T11:04:58.687Z,967.18
2016-07-04T11:05:58.693Z,967.2
2016-07-04T11:06:58.706Z,967.17
2016-07-04T11:07:58.710Z,967.17
2016-07-04T11:08:58.718Z,967.15
2016-07-04T11:09:58.720Z,967.13
2016-07-04T11:10:58.747Z,967.15
2016-07-04T11:11:58.750Z,967.18
2016-07-04T11:12:58.761Z,967.14
2016-07-04T11:13:58.769Z,967.13
2016-07-04T11:14:58.770Z,967.11
2016-07-04T11:15:58.791Z,967.14
2016-07-04T11:16:58.802Z,967.1
2016-07-04T11:17:58.811Z,967.11
2016-07-04T11:18:58.820Z,967.07
2016-07-04T11:19:58.826Z,967.08
2016-07-04T11:20:58.837Z,967.09
2016-07-04T11:21:58.848Z,967.06
2016-07-04T11:22:58.857Z,967.05
2016-07-04T11:23:58.862Z,967.01
2016-07-04T11:24:58.868Z,967.02
2016-07-04T11:25:58.888Z,967.01
2016-07-04T11:26:58.886Z,967.05
2016-07-04T11:27:58.896Z,966.99
2016-07-04T11:28:58.910Z,966.98
2016-07-04T11:29:58.925Z,966.96
2016-07-04T11:30:58.929Z,967
2016-07-04T11:31:58.940Z,966.96
2016-07-04T11:32:58.948Z,966.96
2016-07-04T11:33:58.963Z,966.97
2016-07-04T11:34:58.974Z,966.95
2016-07-04T11:35:58.974Z,966.99
2016-07-04T11:36:58.993Z,966.97
2016-07-04T11:37:58.999Z,966.94
2016-07-04T11:38:59.011Z,966.94
2016-07-04T11:39:59.009Z,966.97
2016-07-04T11:40:59.039Z,966.92
2016-07-04T11:41:59.037Z,966.93
2016-07-04T11:42:59.040Z,966.91
2016-07-04T11:43:59.051Z,966.91
2016-07-04T11:44:59.063Z,966.88
2016-07-04T11:45:59.078Z,966.92
2016-07-04T11:46:59.086Z,966.88
2016-07-04T11:47:59.087Z,966.94
2016-07-04T11:48:59.096Z,966.91
2016-07-04T11:49:59.106Z,966.9
2016-07-04T11:50:59.123Z,966.87
2016-07-04T11:51:59.130Z,966.85
2016-07-04T11:52:59.143Z,966.87
2016-07-04T11:53:59.153Z,966.88
2016-07-04T11:54:59.155Z,966.87
2016-07-04T11:55:59.167Z,966.86
2016-07-04T11:56:59.175Z,966.81
2016-07-04T11:57:59.181Z,966.82
2016-07-04T11:58:59.190Z,966.84
2016-07-04T11:59:59.204Z,966.81
2016-07-04T12:00:59.211Z,966.78
2016-07-04T12:01:59.222Z,966.77
2016-07-04T12:02:59.235Z,966.76
2016-07-04T12:03:59.237Z,966.74
2016-07-04T12:04:59.254Z,966.76
2016-07-04T12:05:59.253Z,966.73
2016-07-04T12:06:59.272Z,966.73
2016-07-04T12:07:59.281Z,966.73
2016-07-04T12:08:59.295Z,966.67
2016-07-04T12:09:59.297Z,966.71
2016-07-04T12:10:59.307Z,966.7
2016-07-04T12:11:59.325Z,966.73
2016-07-04T12:12:59.324Z,966.71
2016-07-04T12:13:59.340Z,966.74
2016-07-04T12:14:59.349Z,966.69
2016-07-04T12:15:59.359Z,966.72
2016-07-04T12:16:59.364Z,966.72
2016-07-04T12:17:59.372Z,966.7
2016-07-04T12:18:59.390Z,966.7
2016-07-04T12:19:59.397Z,966.69
2016-07-04T12:20:59.407Z,966.67
2016-07-04T12:21:59.421Z,966.68
2016-07-04T12:22:59.426Z,966.65
2016-07-04T12:23:59.429Z,966.7
2016-07-04T12:24:59.445Z,966.66
2016-07-04T12:25:59.454Z,966.64
2016-07-04T12:26:59.462Z,966.63
2016-07-04T12:27:59.473Z,966.61
2016-07-04T12:28:59.487Z,966.6
2016-07-04T12:29:59.500Z,966.62
2016-07-04T12:30:59.510Z,966.66
2016-07-04T12:31:59.523Z,966.62
2016-07-04T12:32:59.531Z,966.58
2016-07-04T12:33:59.542Z,966.59
2016-07-04T12:34:59.545Z,966.48
2016-07-04T12:35:59.559Z,966.57
2016-07-04T12:36:59.573Z,966.52
2016-07-04T12:37:59.582Z,966.5
2016-07-04T12:38:59.591Z,966.52
2016-07-04T12:39:59.596Z,966.49
2016-07-04T12:40:59.605Z,966.53
2016-07-04T12:41:59.613Z,966.49
2016-07-04T12:42:59.636Z,966.51
2016-07-04T12:43:59.635Z,966.52
2016-07-04T12:44:59.653Z,966.5
2016-07-04T12:45:59.651Z,966.52
2016-07-04T12:46:59.675Z,966.48
2016-07-04T12:47:59.682Z,966.45
2016-07-04T12:48:59.688Z,966.46
2016-07-04T12:49:59.703Z,966.45
2016-07-04T12:50:59.714Z,966.44
2016-07-04T12:51:59.718Z,966.44
2016-07-04T12:52:59.722Z,966.49
2016-07-04T12:53:59.743Z,966.43
2016-07-04T12:54:59.751Z,966.41
2016-07-04T12:55:59.764Z,966.42
2016-07-04T12:56:59.762Z,966.42
2016-07-04T12:57:59.773Z,966.43
2016-07-04T12:58:59.795Z,966.44